Time;durP1;ratioP1;P1;durP2;ratioP2;P2;SDS_P1;SDS_P2;PMS_P1;PMS_P2;Temp;Humidity;BMP_temperature;BMP_pressure;BME280_temperature;BME280_humidity;BME280_pressure;Samples;Min_cycle;Max_cycle;Signal;HPM_P1;HPM_P2
2022/01/28 00:01:52;;;;;;;21.10;2.50;;;;;;;;;;5073104;27;97276;-74
2022/01/28 00:04:18;;;;;;;20.70;3.00;;;;;;;;;;5070319;27;95250;-74
2022/01/28 00:06:45;;;;;;;20.80;3.05;;;;;;;;;;5073573;27;96686;-75
2022/01/28 00:09:11;;;;;;;19.80;2.50;;;;;;;;;;5073039;27;97783;-75
2022/01/28 00:11:38;;;;;;;19.23;2.78;;;;;;;;;;5076073;27;95296;-76
2022/01/28 00:38:14;;;;;;;24.92;2.90;;;;;;;;;;5073323;27;95224;-74
2022/01/28 00:40:41;;;;;;;16.60;2.58;;;;;;;;;;5072442;27;97145;-76
2022/01/28 00:43:07;;;;;;;22.05;2.42;;;;;;;;;;5072343;27;97400;-75
2022/01/28 00:45:34;;;;;;;16.08;2.50;;;;;;;;;;5073153;27;95111;-74
2022/01/28 00:48:00;;;;;;;21.40;3.47;;;;;;;;;;5073359;27;96772;-75
2022/01/28 00:50:27;;;;;;;20.38;2.58;;;;;;;;;;5073447;27;97317;-74
2022/01/28 00:52:53;;;;;;;21.98;3.00;;;;;;;;;;5072879;27;95347;-74
2022/01/28 00:55:19;;;;;;;24.98;3.17;;;;;;;;;;5072304;27;97125;-76
2022/01/28 00:57:46;;;;;;;22.17;3.72;;;;;;;;;;5076386;27;97351;-78
2022/01/28 01:00:12;;;;;;;16.35;3.30;;;;;;;;;;5073603;27;99212;-74
2022/01/28 01:02:39;;;;;;;25.35;4.15;;;;;;;;;;5072338;27;97418;-74
2022/01/28 01:05:07;;;;;;;23.00;2.67;;;;;;;;;;5072455;27;95484;-73
2022/01/28 01:07:33;;;;;;;21.45;3.03;;;;;;;;;;5072687;27;96826;-76
2022/01/28 01:09:59;;;;;;;22.13;3.50;;;;;;;;;;5071709;27;97365;-75
2022/01/28 01:12:29;;;;;;;18.90;2.85;;;;;;;;;;5070960;27;96709;-77
2022/01/28 01:14:55;;;;;;;26.77;3.03;;;;;;;;;;5072402;27;97408;-77
2022/01/28 01:20:09;;;;;;;16.73;2.78;;;;;;;;;;5074862;27;95376;-74
2022/01/28 01:22:39;;;;;;;16.58;2.80;;;;;;;;;;5071173;27;97334;-77
2022/01/28 01:25:14;;;;;;;21.10;2.63;;;;;;;;;;5072579;27;95320;-74
2022/01/28 01:27:41;;;;;;;17.95;2.47;;;;;;;;;;5062094;27;97004;-73
2022/01/28 01:30:08;;;;;;;18.88;3.10;;;;;;;;;;5071413;27;97348;-76
2022/01/28 01:32:35;;;;;;;12.32;2.70;;;;;;;;;;5072418;27;95488;-75
2022/01/28 01:35:01;;;;;;;18.65;2.63;;;;;;;;;;5072039;27;96792;-76
2022/01/28 01:37:27;;;;;;;20.98;3.60;;;;;;;;;;5072109;27;97284;-77
2022/01/28 01:39:54;;;;;;;19.65;2.50;;;;;;;;;;5074578;27;95416;-74
2022/01/28 01:42:34;;;;;;;18.20;2.50;;;;;;;;;;5070574;27;97114;-76
2022/01/28 01:53:22;;;;;;;21.13;2.95;;;;;;;;;;5075739;27;95170;-73
2022/01/28 01:55:49;;;;;;;25.58;2.70;;;;;;;;;;5075692;27;97238;-76
2022/01/28 01:58:15;;;;;;;23.08;3.17;;;;;;;;;;5075190;27;97397;-73
2022/01/28 02:00:41;;;;;;;21.52;2.60;;;;;;;;;;5075562;27;95309;-76
2022/01/28 02:03:08;;;;;;;18.08;3.00;;;;;;;;;;5076785;27;96128;-75
2022/01/28 02:05:34;;;;;;;20.40;2.80;;;;;;;;;;5075402;27;95424;-76
2022/01/28 02:08:06;;;;;;;15.40;2.20;;;;;;;;;;5075329;27;97064;-74
2022/01/28 02:10:35;;;;;;;15.47;2.73;;;;;;;;;;5075111;27;97399;-75
2022/01/28 02:13:01;;;;;;;15.23;1.95;;;;;;;;;;5074405;27;95310;-74
2022/01/28 02:15:28;;;;;;;19.15;2.80;;;;;;;;;;5075858;27;96773;-75
2022/01/28 02:17:54;;;;;;;20.00;2.45;;;;;;;;;;5074126;27;97276;-77
2022/01/28 02:20:25;;;;;;;21.33;3.13;;;;;;;;;;5074924;27;95339;-75
2022/01/28 02:22:54;;;;;;;15.87;2.30;;;;;;;;;;5074416;27;97224;-73
2022/01/28 02:25:21;;;;;;;12.93;1.95;;;;;;;;;;5067141;27;98400;-76
2022/01/28 02:27:48;;;;;;;19.83;2.58;;;;;;;;;;5075067;27;96227;-73
2022/01/28 02:30:14;;;;;;;25.35;2.58;;;;;;;;;;5075360;27;97343;-75
2022/01/28 02:32:42;;;;;;;18.75;2.50;;;;;;;;;;5073975;27;97148;-75
2022/01/28 02:35:09;;;;;;;21.30;2.70;;;;;;;;;;5075139;27;97059;-75
2022/01/28 02:37:35;;;;;;;21.13;2.78;;;;;;;;;;5075199;27;97431;-75
2022/01/28 02:40:02;;;;;;;8.05;1.65;;;;;;;;;;5074115;27;95592;-75
2022/01/28 02:42:44;;;;;;;20.48;3.67;;;;;;;;;;5070410;27;95850;-72
2022/01/28 02:45:14;;;;;;;19.70;3.35;;;;;;;;;;5064602;27;97501;-74
2022/01/28 02:47:42;;;;;;;13.65;3.08;;;;;;;;;;5077724;27;95371;-73
2022/01/28 02:50:09;;;;;;;22.33;3.03;;;;;;;;;;5072595;27;97840;-74
2022/01/28 02:52:43;;;;;;;21.55;2.53;;;;;;;;;;5074870;27;95125;-74
2022/01/28 02:55:12;;;;;;;18.67;2.97;;;;;;;;;;5061908;27;96554;-75
2022/01/28 02:57:50;;;;;;;16.88;2.28;;;;;;;;;;5068213;27;97300;-75
2022/01/28 03:00:16;;;;;;;17.67;2.28;;;;;;;;;;5074127;27;95463;-72
2022/01/28 03:02:42;;;;;;;22.48;3.15;;;;;;;;;;5074493;27;97607;-73
2022/01/28 03:05:31;;;;;;;23.65;3.67;;;;;;;;;;5070782;27;97388;-75
2022/01/28 03:07:58;;;;;;;18.35;3.08;;;;;;;;;;5074172;27;95158;-74
2022/01/28 03:10:42;;;;;;;22.05;3.28;;;;;;;;;;5077178;27;97211;-74
2022/01/28 03:15:36;;;;;;;24.20;2.60;;;;;;;;;;5074292;27;96790;-73
2022/01/28 03:23:04;;;;;;;18.77;2.75;;;;;;;;;;5072178;27;126453;-73
2022/01/28 03:25:30;;;;;;;19.67;2.65;;;;;;;;;;5072586;27;97421;-73
2022/01/28 03:27:59;;;;;;;21.00;2.90;;;;;;;;;;5074674;27;96176;-75
2022/01/28 03:30:26;;;;;;;12.88;2.80;;;;;;;;;;5074431;27;96719;-75
2022/01/28 03:32:52;;;;;;;21.52;2.90;;;;;;;;;;5076564;27;97462;-75
2022/01/28 03:35:29;;;;;;;28.52;2.97;;;;;;;;;;5073645;27;96759;-75
2022/01/28 03:38:00;;;;;;;21.50;2.80;;;;;;;;;;5073821;27;97377;-75
2022/01/28 03:40:27;;;;;;;23.83;3.53;;;;;;;;;;5063564;27;95241;-74
2022/01/28 03:42:54;;;;;;;19.40;2.50;;;;;;;;;;5073192;27;96810;-73
2022/01/28 03:45:20;;;;;;;27.13;2.55;;;;;;;;;;5073821;27;96283;-75
2022/01/28 03:47:46;;;;;;;15.63;2.38;;;;;;;;;;5073948;27;95380;-75
2022/01/28 03:50:13;;;;;;;18.30;2.95;;;;;;;;;;5072966;27;97260;-76
2022/01/28 03:52:39;;;;;;;17.65;2.17;;;;;;;;;;5068570;27;97950;-73
2022/01/28 03:55:06;;;;;;;20.00;2.25;;;;;;;;;;5075517;27;95281;-73
2022/01/28 03:57:32;;;;;;;25.05;2.70;;;;;;;;;;5073009;27;97874;-73
2022/01/28 03:59:58;;;;;;;20.63;3.88;;;;;;;;;;5073603;27;95184;-73
2022/01/28 04:02:29;;;;;;;18.85;2.83;;;;;;;;;;5072444;27;97443;-72
2022/01/28 04:12:53;;;;;;;18.45;2.40;;;;;;;;;;5063320;27;98052;-73
2022/01/28 04:17:49;;;;;;;15.65;2.70;;;;;;;;;;5072291;27;97358;-75
2022/01/28 04:20:15;;;;;;;25.50;3.13;;;;;;;;;;5073366;27;95334;-73
2022/01/28 04:22:41;;;;;;;16.50;2.50;;;;;;;;;;5073104;27;96817;-74
2022/01/28 04:25:08;;;;;;;14.05;2.22;;;;;;;;;;5072454;27;97268;-75
2022/01/28 04:27:34;;;;;;;18.77;2.40;;;;;;;;;;5073150;27;95475;-75
2022/01/28 04:30:01;;;;;;;16.92;2.33;;;;;;;;;;5071650;27;96915;-72
2022/01/28 04:32:29;;;;;;;22.40;2.58;;;;;;;;;;5073021;27;97718;-73
2022/01/28 04:34:58;;;;;;;18.27;2.30;;;;;;;;;;5070024;27;96152;-72
2022/01/28 04:42:54;;;;;;;18.25;2.40;;;;;;;;;;5073085;27;96822;-75
2022/01/28 04:45:46;;;;;;;20.80;2.80;;;;;;;;;;5064231;27;97378;-75
2022/01/28 04:50:53;;;;;;;25.00;2.60;;;;;;;;;;5072698;27;97187;-73
2022/01/28 05:01:15;;;;;;;19.40;2.20;;;;;;;;;;5064529;27;97408;-73
2022/01/28 05:06:35;;;;;;;21.70;2.85;;;;;;;;;;5071953;27;97446;-73
2022/01/28 05:14:26;;;;;;;26.95;2.60;;;;;;;;;;5071596;27;97303;-73
2022/01/28 05:17:12;;;;;;;23.73;2.53;;;;;;;;;;5071453;27;95246;-74
2022/01/28 05:25:34;;;;;;;27.85;3.03;;;;;;;;;;5076404;27;95295;-72
2022/01/28 05:27:48;;;;;;;14.35;2.67;;;;;;;;;;5072069;27;97327;-72
2022/01/28 05:30:14;;;;;;;20.15;2.72;;;;;;;;;;5072764;27;95444;-72
2022/01/28 05:32:42;;;;;;;22.95;3.28;;;;;;;;;;5071812;27;96806;-71
2022/01/28 05:35:09;;;;;;;16.60;2.85;;;;;;;;;;5069979;27;100316;-72
2022/01/28 05:37:35;;;;;;;14.02;2.40;;;;;;;;;;5071654;27;96798;-72
2022/01/28 05:40:02;;;;;;;14.93;2.22;;;;;;;;;;5071841;27;96802;-73
2022/01/28 05:42:28;;;;;;;24.83;2.53;;;;;;;;;;5068067;27;97827;-72
2022/01/28 05:44:55;;;;;;;11.73;2.50;;;;;;;;;;5071909;27;95416;-72
2022/01/28 05:47:24;;;;;;;20.48;2.50;;;;;;;;;;5074640;27;97253;-72
2022/01/28 05:49:50;;;;;;;19.25;2.88;;;;;;;;;;5069383;27;95450;-74
2022/01/28 05:52:17;;;;;;;23.00;2.63;;;;;;;;;;5069822;27;97448;-72
2022/01/28 05:54:44;;;;;;;21.90;2.92;;;;;;;;;;5070888;27;97666;-75
2022/01/28 05:57:14;;;;;;;25.27;2.83;;;;;;;;;;5068032;27;95602;-72
2022/01/28 05:59:40;;;;;;;20.10;2.42;;;;;;;;;;5071853;27;97505;-73
2022/01/28 06:02:07;;;;;;;18.60;3.05;;;;;;;;;;5070611;27;97341;-72
2022/01/28 06:04:36;;;;;;;20.40;3.58;;;;;;;;;;5070993;27;95191;-72
2022/01/28 06:07:02;;;;;;;26.35;2.70;;;;;;;;;;5070713;27;96883;-72
2022/01/28 06:09:29;;;;;;;22.73;2.40;;;;;;;;;;5074102;27;95907;-73
2022/01/28 06:11:55;;;;;;;15.68;2.25;;;;;;;;;;5071005;27;96832;-72
2022/01/28 06:14:21;;;;;;;22.98;2.92;;;;;;;;;;5070383;27;97326;-72
2022/01/28 06:16:47;;;;;;;20.30;2.15;;;;;;;;;;5070745;27;95350;-73
2022/01/28 06:19:14;;;;;;;17.27;2.58;;;;;;;;;;5071250;27;96885;-74
2022/01/28 06:21:40;;;;;;;25.05;2.92;;;;;;;;;;5069596;27;97340;-73
2022/01/28 06:24:07;;;;;;;15.00;2.17;;;;;;;;;;5070263;27;95427;-72
2022/01/28 06:26:33;;;;;;;21.98;2.58;;;;;;;;;;5075004;27;97198;-72
2022/01/28 06:29:00;;;;;;;19.23;3.17;;;;;;;;;;5075970;27;97263;-72
2022/01/28 06:31:26;;;;;;;24.70;3.08;;;;;;;;;;5072900;27;96836;-73
2022/01/28 06:33:53;;;;;;;20.85;2.72;;;;;;;;;;5073110;27;97521;-72
2022/01/28 06:36:21;;;;;;;18.13;2.63;;;;;;;;;;5074354;27;95141;-72
2022/01/28 06:38:48;;;;;;;17.85;2.83;;;;;;;;;;5073795;27;96824;-75
2022/01/28 06:41:14;;;;;;;20.67;3.67;;;;;;;;;;5074019;27;97342;-72
2022/01/28 06:43:41;;;;;;;18.95;3.10;;;;;;;;;;5062447;27;96502;-73
2022/01/28 06:46:08;;;;;;;14.05;3.80;;;;;;;;;;5071169;27;97024;-73
2022/01/28 06:48:35;;;;;;;18.95;3.10;;;;;;;;;;5074898;27;97797;-72
2022/01/28 06:51:01;;;;;;;28.90;4.38;;;;;;;;;;5076326;27;97396;-73
2022/01/28 06:53:27;;;;;;;19.65;3.63;;;;;;;;;;5072113;27;97334;-73
2022/01/28 06:55:54;;;;;;;19.90;2.58;;;;;;;;;;5068427;27;96469;-72
2022/01/28 06:58:20;;;;;;;16.70;2.50;;;;;;;;;;5067935;27;97243;-73
2022/01/28 07:00:47;;;;;;;22.70;2.67;;;;;;;;;;5072318;27;97645;-76
2022/01/28 07:03:17;;;;;;;20.30;2.72;;;;;;;;;;5068369;27;96675;-74
2022/01/28 07:05:43;;;;;;;12.60;2.17;;;;;;;;;;5073663;27;96747;-74
2022/01/28 07:08:10;;;;;;;17.80;3.50;;;;;;;;;;5073788;27;97301;-73
2022/01/28 07:10:36;;;;;;;14.32;2.50;;;;;;;;;;5073962;27;95446;-72
2022/01/28 07:13:03;;;;;;;16.05;3.05;;;;;;;;;;5077110;27;96725;-74
2022/01/28 07:15:29;;;;;;;27.60;2.92;;;;;;;;;;5073202;27;95466;-73
2022/01/28 07:17:57;;;;;;;17.42;2.58;;;;;;;;;;5073536;27;97102;-74
2022/01/28 16:20:02;;;;;;;18.35;3.92;;;;;;;;;;5059879;27;95440;-79
2022/01/28 16:22:28;;;;;;;13.90;3.40;;;;;;;;;;5051542;27;97557;-78
2022/01/28 16:24:55;;;;;;;15.88;3.78;;;;;;;;;;5058080;27;95645;-77
2022/01/28 16:27:21;;;;;;;12.30;4.30;;;;;;;;;;5046155;27;96831;-82
2022/01/28 16:29:47;;;;;;;14.50;3.67;;;;;;;;;;5051375;27;97354;-74
2022/01/28 16:32:14;;;;;;;14.32;4.10;;;;;;;;;;5058597;27;95467;-78
2022/01/28 16:34:40;;;;;;;13.30;4.20;;;;;;;;;;5042827;27;97170;-80
2022/01/28 16:37:10;;;;;;;13.82;3.83;;;;;;;;;;5048365;27;97205;-81
2022/01/28 16:39:39;;;;;;;16.30;4.18;;;;;;;;;;5067897;27;95404;-76
2022/01/28 16:42:16;;;;;;;18.20;4.88;;;;;;;;;;5067277;27;97720;-78
2022/01/28 16:44:50;;;;;;;10.77;4.23;;;;;;;;;;5035464;27;95252;-78
2022/01/28 16:47:16;;;;;;;17.90;4.45;;;;;;;;;;5054564;27;96743;-75
2022/01/28 16:49:46;;;;;;;11.90;4.60;;;;;;;;;;5056445;27;97346;-76
2022/01/28 16:52:13;;;;;;;17.23;5.05;;;;;;;;;;5036917;27;95457;-73
2022/01/28 16:54:40;;;;;;;13.07;5.90;;;;;;;;;;5044674;27;97033;-74
2022/01/28 16:57:06;;;;;;;18.80;6.03;;;;;;;;;;5042375;27;97702;-73
2022/01/28 16:59:33;;;;;;;18.10;6.25;;;;;;;;;;5032286;27;95447;-74
2022/01/28 17:02:00;;;;;;;20.02;7.63;;;;;;;;;;5049611;27;96776;-74
2022/01/28 17:04:26;;;;;;;19.58;9.00;;;;;;;;;;5055891;27;95223;-73
2022/01/28 17:06:54;;;;;;;26.25;11.38;;;;;;;;;;5066710;27;99351;-77
2022/01/28 17:09:25;;;;;;;27.63;13.95;;;;;;;;;;5046868;27;97353;-76
2022/01/28 17:12:16;;;;;;;30.52;15.43;;;;;;;;;;5056068;27;95347;-75
2022/01/28 17:14:41;;;;;;;28.38;15.60;;;;;;;;;;5044262;27;96984;-75
2022/01/28 17:17:08;;;;;;;37.50;16.75;;;;;;;;;;5044410;27;97453;-79
2022/01/28 17:19:34;;;;;;;36.28;17.88;;;;;;;;;;5070175;27;95873;-76
2022/01/28 17:22:00;;;;;;;34.35;18.17;;;;;;;;;;5059428;27;96823;-77
2022/01/28 17:24:27;;;;;;;35.75;18.67;;;;;;;;;;5070628;27;97345;-78
2022/01/28 17:27:07;;;;;;;37.67;18.95;;;;;;;;;;5066375;27;97034;-80
2022/01/28 17:29:33;;;;;;;43.97;19.33;;;;;;;;;;5041928;27;97361;-75
2022/01/28 17:32:03;;;;;;;32.33;18.67;;;;;;;;;;5051516;27;96315;-74
2022/01/28 17:34:30;;;;;;;37.45;18.35;;;;;;;;;;5042578;27;96877;-81
2022/01/28 17:36:56;;;;;;;40.67;17.48;;;;;;;;;;5049131;27;97669;-81
2022/01/28 17:39:22;;;;;;;37.78;18.00;;;;;;;;;;5044594;27;95810;-81
2022/01/28 17:41:49;;;;;;;32.08;18.15;;;;;;;;;;5048355;27;96749;-82
2022/01/28 17:44:15;;;;;;;27.73;15.82;;;;;;;;;;5050363;27;97018;-78
2022/01/28 17:46:41;;;;;;;28.50;16.27;;;;;;;;;;5044009;27;95357;-74
2022/01/28 17:49:08;;;;;;;33.90;15.90;;;;;;;;;;5048195;27;97245;-74
2022/01/28 17:51:34;;;;;;;34.10;16.92;;;;;;;;;;5048701;27;95307;-75
2022/01/28 17:54:01;;;;;;;33.67;16.20;;;;;;;;;;5036092;27;97431;-76
2022/01/28 17:56:27;;;;;;;28.70;13.88;;;;;;;;;;5034684;27;97073;-73
2022/01/28 17:58:54;;;;;;;31.02;15.82;;;;;;;;;;5045434;27;95393;-74
2022/01/28 18:01:20;;;;;;;31.33;14.32;;;;;;;;;;5039155;27;95458;-74
2022/01/28 18:03:46;;;;;;;32.08;16.05;;;;;;;;;;5040336;27;97194;-73
2022/01/28 18:06:13;;;;;;;34.75;16.00;;;;;;;;;;5037788;27;95289;-73
2022/01/28 18:08:39;;;;;;;36.67;15.57;;;;;;;;;;5041341;27;96684;-73
2022/01/28 18:11:06;;;;;;;29.85;15.90;;;;;;;;;;5042536;27;96927;-74
2022/01/28 18:13:32;;;;;;;38.20;17.63;;;;;;;;;;5018989;27;97779;-75
2022/01/28 18:16:01;;;;;;;35.95;17.30;;;;;;;;;;5035978;27;97704;-75
2022/01/28 18:18:29;;;;;;;37.28;18.23;;;;;;;;;;5036004;27;95379;-74
2022/01/28 18:20:55;;;;;;;38.30;18.85;;;;;;;;;;5036227;27;97104;-75
2022/01/28 18:23:22;;;;;;;39.15;19.77;;;;;;;;;;5043681;27;97888;-74
2022/01/28 18:25:48;;;;;;;37.85;20.35;;;;;;;;;;5052443;27;95174;-74
2022/01/28 18:28:15;;;;;;;40.33;21.17;;;;;;;;;;5033547;27;96875;-74
2022/01/28 18:30:42;;;;;;;45.95;20.98;;;;;;;;;;5044496;27;95297;-74
2022/01/28 18:33:09;;;;;;;43.97;22.90;;;;;;;;;;5038727;27;96420;-75
2022/01/28 18:35:35;;;;;;;46.10;23.38;;;;;;;;;;5033051;27;97523;-74
2022/01/28 18:38:02;;;;;;;44.63;22.65;;;;;;;;;;5032097;28;95310;-74
2022/01/28 18:40:28;;;;;;;41.58;23.15;;;;;;;;;;5038041;27;96970;-74
2022/01/28 18:42:59;;;;;;;51.17;27.65;;;;;;;;;;5032288;27;97412;-75
2022/01/28 18:45:29;;;;;;;55.20;24.95;;;;;;;;;;5037003;27;95271;-78
2022/01/28 18:47:56;;;;;;;52.42;26.88;;;;;;;;;;5035886;27;96737;-74
2022/01/28 18:50:24;;;;;;;55.67;26.90;;;;;;;;;;5038700;27;96127;-74
2022/01/28 18:52:53;;;;;;;56.10;28.00;;;;;;;;;;5038132;27;96845;-75
2022/01/28 18:55:21;;;;;;;58.72;28.42;;;;;;;;;;5037601;27;100074;-74
2022/01/28 18:57:47;;;;;;;60.15;28.83;;;;;;;;;;5038960;27;95383;-73
2022/01/28 19:00:14;;;;;;;60.17;27.73;;;;;;;;;;5045107;27;97081;-80
2022/01/28 19:02:40;;;;;;;60.55;28.85;;;;;;;;;;5049859;27;97412;-75
2022/01/28 19:05:09;;;;;;;55.95;28.70;;;;;;;;;;5043433;27;96148;-74
2022/01/28 19:07:38;;;;;;;68.07;31.73;;;;;;;;;;5049935;27;97148;-75
2022/01/28 19:10:05;;;;;;;70.07;32.65;;;;;;;;;;5046372;27;97248;-75
2022/01/28 19:12:33;;;;;;;72.13;31.92;;;;;;;;;;5053239;27;95434;-77
2022/01/28 19:14:59;;;;;;;68.47;31.85;;;;;;;;;;5047733;27;97665;-81
2022/01/28 19:17:26;;;;;;;69.60;32.53;;;;;;;;;;5042413;27;95843;-74
2022/01/28 19:19:56;;;;;;;67.65;32.10;;;;;;;;;;5039971;27;96496;-72
2022/01/28 19:22:23;;;;;;;80.57;33.53;;;;;;;;;;5044159;27;97326;-75
2022/01/28 19:24:52;;;;;;;70.75;33.53;;;;;;;;;;5036244;27;95312;-73
2022/01/28 19:27:19;;;;;;;74.18;33.38;;;;;;;;;;5044559;27;96747;-74
2022/01/28 19:29:45;;;;;;;61.85;32.85;;;;;;;;;;5048376;27;97271;-73
2022/01/28 19:32:13;;;;;;;76.22;33.25;;;;;;;;;;5050124;27;95520;-73
2022/01/28 19:34:39;;;;;;;77.07;34.05;;;;;;;;;;5050741;27;96741;-74
2022/01/28 19:37:06;;;;;;;66.30;33.72;;;;;;;;;;5036532;27;95431;-73
2022/01/28 19:39:34;;;;;;;67.25;33.90;;;;;;;;;;5045261;27;96044;-74
2022/01/28 19:42:00;;;;;;;69.55;34.55;;;;;;;;;;5040107;27;97407;-73
2022/01/28 19:44:27;;;;;;;78.20;37.05;;;;;;;;;;5044642;27;95592;-73
2022/01/28 19:46:53;;;;;;;69.65;33.88;;;;;;;;;;5039002;27;95700;-74
2022/01/28 19:49:20;;;;;;;76.50;35.13;;;;;;;;;;5044134;27;97145;-74
2022/01/28 19:51:46;;;;;;;74.28;35.05;;;;;;;;;;5047712;27;96871;-76
2022/01/28 19:54:13;;;;;;;76.38;36.45;;;;;;;;;;5035971;27;96819;-75
2022/01/28 19:56:40;;;;;;;75.50;35.70;;;;;;;;;;5042732;27;97913;-76
2022/01/28 19:59:08;;;;;;;75.05;35.40;;;;;;;;;;5037470;27;96843;-77
2022/01/28 20:01:35;;;;;;;72.38;35.70;;;;;;;;;;5038191;27;97735;-82
2022/01/28 20:04:02;;;;;;;75.88;38.53;;;;;;;;;;5046618;27;95714;-77
2022/01/28 20:06:29;;;;;;;79.35;36.38;;;;;;;;;;5041176;27;97850;-79
2022/01/28 20:08:55;;;;;;;81.18;38.42;;;;;;;;;;5038367;27;97313;-74
2022/01/28 20:11:22;;;;;;;84.10;37.88;;;;;;;;;;5045591;27;95378;-74
2022/01/28 20:13:48;;;;;;;76.13;37.75;;;;;;;;;;5048486;27;96692;-75
2022/01/28 20:16:15;;;;;;;80.05;38.70;;;;;;;;;;5034988;27;97098;-74
2022/01/28 20:18:41;;;;;;;82.15;38.35;;;;;;;;;;5036889;27;95305;-74
2022/01/28 20:21:11;;;;;;;84.07;39.40;;;;;;;;;;5046082;27;97740;-75
2022/01/28 20:23:37;;;;;;;93.05;41.15;;;;;;;;;;5038806;27;96155;-75
2022/01/28 20:26:04;;;;;;;87.40;41.28;;;;;;;;;;5025051;27;97201;-75
2022/01/28 20:28:31;;;;;;;89.57;39.38;;;;;;;;;;5042146;27;97368;-73
2022/01/28 20:30:58;;;;;;;82.60;39.92;;;;;;;;;;5034803;27;95347;-74
2022/01/28 20:33:26;;;;;;;90.15;39.65;;;;;;;;;;5047954;27;96854;-74
2022/01/28 20:35:52;;;;;;;79.93;38.85;;;;;;;;;;5037179;27;97467;-74
2022/01/28 20:38:20;;;;;;;89.78;39.10;;;;;;;;;;5039792;27;95207;-74
2022/01/28 20:40:47;;;;;;;92.45;41.45;;;;;;;;;;5042245;27;97283;-74
2022/01/28 20:43:14;;;;;;;82.20;38.90;;;;;;;;;;5045717;27;95423;-74
2022/01/28 20:45:40;;;;;;;86.18;40.45;;;;;;;;;;5052195;27;97035;-75
2022/01/28 20:48:07;;;;;;;90.72;39.53;;;;;;;;;;5041849;27;97305;-75
2022/01/28 20:50:33;;;;;;;96.35;42.40;;;;;;;;;;5034365;27;96978;-74
2022/01/28 20:53:00;;;;;;;83.15;39.38;;;;;;;;;;5040324;27;96806;-74
2022/01/28 20:55:27;;;;;;;93.20;40.70;;;;;;;;;;5034959;27;97559;-74
2022/01/28 20:57:54;;;;;;;86.45;40.22;;;;;;;;;;5024660;27;95395;-74
2022/01/28 21:00:20;;;;;;;91.18;40.95;;;;;;;;;;5057149;27;96933;-74
2022/01/28 21:02:48;;;;;;;89.53;41.97;;;;;;;;;;5042304;27;95409;-76
2022/01/28 21:05:15;;;;;;;94.25;41.33;;;;;;;;;;5035497;27;96752;-74
2022/01/28 21:07:46;;;;;;;84.32;39.60;;;;;;;;;;5053118;27;97415;-74
2022/01/28 21:10:14;;;;;;;91.38;41.92;;;;;;;;;;5049618;27;95274;-76
2022/01/28 21:12:41;;;;;;;93.95;43.22;;;;;;;;;;5042128;27;97273;-79
2022/01/28 21:15:08;;;;;;;87.47;41.08;;;;;;;;;;5047493;27;97839;-79
2022/01/28 21:17:34;;;;;;;94.75;40.80;;;;;;;;;;5052018;27;95827;-75
2022/01/28 21:20:01;;;;;;;81.60;38.40;;;;;;;;;;5047122;27;97346;-76
2022/01/28 21:22:27;;;;;;;95.75;40.35;;;;;;;;;;5047237;27;97224;-78
2022/01/28 21:24:54;;;;;;;89.97;41.20;;;;;;;;;;5041578;27;97502;-77
2022/01/28 21:27:20;;;;;;;89.88;41.85;;;;;;;;;;5041534;27;97178;-78
2022/01/28 21:29:47;;;;;;;103.72;41.78;;;;;;;;;;5048314;27;95132;-77
2022/01/28 21:32:13;;;;;;;88.03;39.88;;;;;;;;;;5058554;27;97024;-77
2022/01/28 21:34:40;;;;;;;90.90;39.00;;;;;;;;;;5060228;27;97515;-78
2022/01/28 21:37:06;;;;;;;90.97;40.78;;;;;;;;;;5046670;27;95426;-75
2022/01/28 21:39:32;;;;;;;89.03;42.05;;;;;;;;;;5071822;27;97263;-77
2022/01/28 21:41:59;;;;;;;90.43;42.63;;;;;;;;;;5052533;27;98108;-78
2022/01/28 21:44:29;;;;;;;85.00;39.13;;;;;;;;;;5057486;27;95149;-78
2022/01/28 21:46:55;;;;;;;88.00;39.75;;;;;;;;;;5062516;27;97684;-79
2022/01/28 21:49:22;;;;;;;83.80;38.33;;;;;;;;;;5054809;27;96190;-76
2022/01/28 21:51:49;;;;;;;84.72;38.75;;;;;;;;;;5032751;27;97360;-79
2022/01/28 21:54:15;;;;;;;75.30;36.17;;;;;;;;;;5060293;27;97439;-75
2022/01/28 21:56:42;;;;;;;79.47;36.47;;;;;;;;;;5059347;27;95503;-80
2022/01/28 21:59:08;;;;;;;69.03;33.38;;;;;;;;;;5065684;27;96822;-76
2022/01/28 22:01:37;;;;;;;72.47;35.47;;;;;;;;;;5049051;27;96262;-78
2022/01/28 22:04:04;;;;;;;75.95;35.67;;;;;;;;;;5055383;27;95412;-77
2022/01/28 22:06:31;;;;;;;67.50;34.33;;;;;;;;;;5071626;27;97164;-76
2022/01/28 22:08:57;;;;;;;73.07;35.13;;;;;;;;;;5057548;27;95345;-76
2022/01/28 22:11:23;;;;;;;70.65;32.95;;;;;;;;;;5066053;27;96826;-77
2022/01/28 22:13:50;;;;;;;66.10;34.35;;;;;;;;;;5063986;27;97809;-76
2022/01/28 22:16:17;;;;;;;69.43;34.45;;;;;;;;;;5063846;27;95630;-76
2022/01/28 22:18:44;;;;;;;64.10;33.45;;;;;;;;;;5068769;27;97266;-78
2022/01/28 22:21:10;;;;;;;64.18;32.33;;;;;;;;;;5058537;27;97315;-76
2022/01/28 22:23:37;;;;;;;62.05;35.35;;;;;;;;;;5055644;27;96272;-79
2022/01/28 22:26:03;;;;;;;71.00;33.70;;;;;;;;;;5052043;27;96868;-79
2022/01/28 22:28:29;;;;;;;57.70;31.75;;;;;;;;;;5061696;27;97344;-80
2022/01/28 22:30:56;;;;;;;53.38;30.17;;;;;;;;;;5060508;27;96928;-77
2022/01/28 22:33:22;;;;;;;59.15;30.73;;;;;;;;;;5058692;27;97674;-82
2022/01/28 22:35:49;;;;;;;59.08;29.10;;;;;;;;;;5037401;27;95200;-76
2022/01/28 22:38:15;;;;;;;58.97;29.30;;;;;;;;;;5069123;27;95801;-76
2022/01/28 22:40:41;;;;;;;55.10;30.20;;;;;;;;;;5054228;27;97329;-77
2022/01/28 22:43:08;;;;;;;52.95;31.50;;;;;;;;;;5043276;27;95361;-77
2022/01/28 22:45:37;;;;;;;57.60;30.77;;;;;;;;;;5053047;27;96669;-76
2022/01/28 22:48:03;;;;;;;65.55;33.45;;;;;;;;;;5069818;27;97672;-74
2022/01/28 22:50:30;;;;;;;55.45;31.27;;;;;;;;;;5056036;27;96813;-79
2022/01/28 22:52:56;;;;;;;58.33;32.65;;;;;;;;;;5062677;27;97743;-82
2022/01/28 22:55:22;;;;;;;58.13;32.05;;;;;;;;;;5036895;27;96825;-79
2022/01/28 22:57:49;;;;;;;57.90;29.38;;;;;;;;;;5057825;27;96958;-79
2022/01/28 23:00:18;;;;;;;54.47;31.95;;;;;;;;;;5064965;27;97696;-78
2022/01/28 23:02:45;;;;;;;60.88;31.85;;;;;;;;;;5064145;27;95514;-79
2022/01/28 23:05:12;;;;;;;61.10;31.30;;;;;;;;;;5055200;27;97429;-80
2022/01/28 23:07:42;;;;;;;58.10;32.00;;;;;;;;;;5065116;27;97665;-77
2022/01/28 23:10:08;;;;;;;59.20;31.70;;;;;;;;;;5073741;27;95335;-75
2022/01/28 23:12:34;;;;;;;64.20;34.22;;;;;;;;;;5064743;27;97318;-80
2022/01/28 23:15:01;;;;;;;62.05;31.17;;;;;;;;;;5055050;27;95292;-84
2022/01/28 23:17:27;;;;;;;58.05;31.27;;;;;;;;;;5064866;27;97264;-81
2022/01/28 23:19:54;;;;;;;69.00;33.42;;;;;;;;;;5067746;27;97209;-79
2022/01/28 23:22:20;;;;;;;59.58;31.02;;;;;;;;;;5065406;27;95295;-77
2022/01/28 23:24:47;;;;;;;67.10;33.92;;;;;;;;;;5052497;27;96805;-82
2022/01/28 23:27:13;;;;;;;63.60;31.65;;;;;;;;;;5038909;27;97269;-78
2022/01/28 23:29:39;;;;;;;58.83;30.65;;;;;;;;;;5054929;27;95246;-77
2022/01/28 23:32:06;;;;;;;60.88;30.70;;;;;;;;;;5071410;27;96843;-81
2022/01/28 23:34:32;;;;;;;63.45;30.73;;;;;;;;;;5055875;27;95222;-80
2022/01/28 23:36:58;;;;;;;63.95;32.88;;;;;;;;;;5052076;27;96870;-77
2022/01/28 23:39:28;;;;;;;61.13;32.65;;;;;;;;;;5061357;27;97399;-79
2022/01/28 23:41:55;;;;;;;61.00;33.75;;;;;;;;;;5066972;27;95438;-80
2022/01/28 23:44:22;;;;;;;62.78;33.42;;;;;;;;;;5062081;27;96718;-80
2022/01/28 23:46:48;;;;;;;72.35;33.72;;;;;;;;;;5053002;27;97525;-79
2022/01/28 23:49:14;;;;;;;71.30;35.17;;;;;;;;;;5063859;27;95400;-79
2022/01/28 23:51:42;;;;;;;84.22;35.85;;;;;;;;;;5067611;27;96890;-79
2022/01/28 23:54:09;;;;;;;77.63;37.47;;;;;;;;;;5070027;27;96186;-79
2022/01/28 23:56:37;;;;;;;78.82;38.08;;;;;;;;;;5057550;27;96892;-80
2022/01/28 23:59:13;;;;;;;88.95;39.38;;;;;;;;;;5070874;27;97559;-78
